Weather History for KWWR - October, 2013

Change the Weather History Date:

Saturday, October 19, 2013

  Actual Average (KGAG) Record (KGAG)
Temperature  
Mean Temperature 50 °F -  
Max Temperature 69 °F 70 °F 93 °F (2003)
Min Temperature 32 °F 41 °F 21 °F (1976)
Degree Days  
Heating Degree Days 14    
Moisture  
Dew Point 31 °F    
Average Humidity 63    
Maximum Humidity 100    
Minimum Humidity 17    
Precipitation  
Precipitation 0.00 in - - ()
Sea Level Pressure  
Sea Level Pressure 30.11 in    
Wind  
Wind Speed 10 mph (SW)    
Max Wind Speed 16 mph    
Max Gust Speed 24 mph    
Visibility 10 miles    
Events      
Averages and records for this station are not official NWS values.
T = Trace of Precipitation, MM = Missing Value Source: NWS Daily Summary

Daily Weather History Graph

Daily Weather History Graph

Search for Another Location

Airport or City:

Trip Planner

Search our weather history database for the weather conditions in past years. The results will help you decide how hot, cold, wet, or windy it might be!

Date:

Astronomy

Oct. 19, 2013 Rise Set
Actual Time 7:49 AM CDT 6:56 PM CDT
Civil Twilight 7:23 AM CDT 7:22 PM CDT
Nautical Twilight 6:52 AM CDT 7:52 PM CDT
Astronomical Twilight 6:23 AM CDT 8:22 PM CDT
Moon 7:27 PM CDT (10/19) 8:26 AM CDT (10/19)
Length of Visible Light 11h 59m
Length of Day
11h 07m
Waxing Gibbous, 99% of the Moon is Illuminated
Oct 19
Waxing Gibbous
Oct 26
Last Quarter
Nov 3
New
Nov 9
First Quarter
Nov 17
Full

Hourly Weather History & Observations

Time (CDT) Temp. Windchill Dew Point Humidity Pressure Visibility Wind Dir Wind Speed Gust Speed Precip Events Conditions
12:15 AM 33.8 °F 27.0 °F 32.0 °F 93% 30.21 in 10.0 mi SW 8.1 mph - N/A   Clear
12:35 AM 33.8 °F 26.4 °F 32.0 °F 93% 30.20 in 10.0 mi SW 9.2 mph - N/A   Clear
12:55 AM 33.8 °F 26.4 °F 32.0 °F 93% 30.20 in 10.0 mi SW 9.2 mph - N/A   Clear
1:15 AM 33.8 °F 26.4 °F 32.0 °F 93% 30.19 in 10.0 mi SW 9.2 mph - N/A   Clear
1:35 AM 33.8 °F 26.4 °F 32.0 °F 93% 30.19 in 10.0 mi SW 9.2 mph - N/A   Clear
1:55 AM 33.8 °F 26.4 °F 32.0 °F 93% 30.19 in 10.0 mi SW 9.2 mph - N/A   Clear
2:15 AM 32.0 °F 24.8 °F 32.0 °F 100% 30.19 in 10.0 mi SW 8.1 mph - N/A   Clear
2:35 AM 32.0 °F 24.2 °F 32.0 °F 100% 30.19 in 10.0 mi SW 9.2 mph - N/A   Clear
2:55 AM 32.0 °F 24.2 °F 32.0 °F 100% 30.19 in 10.0 mi SW 9.2 mph - N/A   Clear
3:15 AM 32.0 °F 23.6 °F 32.0 °F 100% 30.19 in 10.0 mi SW 10.4 mph - N/A   Clear
3:35 AM 32.0 °F 23.6 °F 32.0 °F 100% 30.19 in 10.0 mi SW 10.4 mph - N/A   Clear
3:55 AM 32.0 °F 24.2 °F 32.0 °F 100% 30.19 in 10.0 mi SW 9.2 mph - N/A   Clear
4:15 AM 32.0 °F 24.2 °F 32.0 °F 100% 30.18 in 10.0 mi SW 9.2 mph - N/A   Clear
4:35 AM 32.0 °F 24.2 °F 32.0 °F 100% 30.17 in 10.0 mi SW 9.2 mph - N/A   Clear
4:55 AM 32.0 °F 24.2 °F 32.0 °F 100% 30.17 in 10.0 mi SW 9.2 mph - N/A   Clear
5:15 AM 32.0 °F 24.8 °F 32.0 °F 100% 30.17 in 10.0 mi SW 8.1 mph - N/A   Clear
5:35 AM 32.0 °F 24.8 °F 32.0 °F 100% 30.17 in 10.0 mi SW 8.1 mph - N/A   Clear
5:55 AM 32.0 °F 24.8 °F 32.0 °F 100% 30.16 in 10.0 mi SW 8.1 mph - N/A   Clear
6:15 AM 33.8 °F 26.4 °F 32.0 °F 93% 30.17 in 10.0 mi SW 9.2 mph - N/A   Clear
6:35 AM 33.8 °F 25.8 °F 32.0 °F 93% 30.17 in 10.0 mi SW 10.4 mph - N/A   Clear
6:55 AM 33.8 °F 25.8 °F 32.0 °F 93% 30.18 in 10.0 mi SW 10.4 mph - N/A   Clear
7:15 AM 32.0 °F 23.6 °F 32.0 °F 100% 30.18 in 10.0 mi SW 10.4 mph - N/A   Clear
7:35 AM 32.0 °F 23.6 °F 32.0 °F 100% 30.18 in 10.0 mi SW 10.4 mph - N/A   Clear
7:55 AM 32.0 °F 24.2 °F 32.0 °F 100% 30.18 in 10.0 mi SW 9.2 mph - N/A   Clear
8:15 AM 33.8 °F 26.4 °F 32.0 °F 93% 30.18 in 10.0 mi SW 9.2 mph - N/A   Clear
8:35 AM 33.8 °F 25.3 °F 32.0 °F 93% 30.18 in 10.0 mi SW 11.5 mph - N/A   Clear
8:55 AM 35.6 °F 27.5 °F 32.0 °F 87% 30.18 in 10.0 mi SW 11.5 mph - N/A   Clear
9:15 AM 37.4 °F 29.3 °F 33.8 °F 87% 30.18 in 10.0 mi SW 12.7 mph - N/A   Clear
9:35 AM 41.0 °F 34.3 °F 35.6 °F 81% 30.18 in 10.0 mi WSW 11.5 mph - N/A   Clear
9:55 AM 42.8 °F 36.6 °F 35.6 °F 76% 30.18 in 10.0 mi WSW 11.5 mph - N/A   Clear
10:15 AM 46.4 °F 40.7 °F 37.4 °F 71% 30.19 in 10.0 mi WSW 12.7 mph - N/A   Clear
10:35 AM 50.0 °F - 37.4 °F 62% 30.18 in 10.0 mi WSW 11.5 mph - N/A   Clear
10:55 AM 50.0 °F - 37.4 °F 62% 30.17 in 10.0 mi SW 13.8 mph - N/A   Clear
11:15 AM 51.8 °F - 35.6 °F 54% 30.16 in 10.0 mi SW 15.0 mph 20.7 mph N/A   Clear
11:35 AM 55.4 °F - 35.6 °F 47% 30.16 in 10.0 mi WSW 15.0 mph 20.7 mph N/A   Clear
11:55 AM 57.2 °F - 35.6 °F 44% 30.15 in 10.0 mi SW 15.0 mph - N/A   Clear
1:55 PM 66.2 °F - 32.0 °F 28% 30.08 in 10.0 mi WSW 15.0 mph 24.2 mph N/A   Clear
2:15 PM 68.0 °F - 32.0 °F 26% 30.07 in 10.0 mi SW 16.1 mph 21.9 mph N/A   Clear
2:35 PM 68.0 °F - 30.2 °F 24% 30.06 in 10.0 mi WSW 12.7 mph 20.7 mph N/A   Clear
2:55 PM 68.0 °F - 30.2 °F 24% 30.05 in 10.0 mi SW 11.5 mph 21.9 mph N/A   Clear
3:15 PM 69.8 °F - 28.4 °F 21% 30.05 in 10.0 mi West 13.8 mph 20.7 mph N/A   Clear
3:35 PM 69.8 °F - 28.4 °F 21% 30.04 in 10.0 mi WSW 16.1 mph 23.0 mph N/A   Clear
3:55 PM 69.8 °F - 26.6 °F 20% 30.04 in 10.0 mi WSW 12.7 mph 18.4 mph N/A   Clear
4:15 PM 69.8 °F - 24.8 °F 18% 30.03 in 10.0 mi WSW 11.5 mph 18.4 mph N/A   Clear
4:35 PM 69.8 °F - 23.0 °F 17% 30.03 in 10.0 mi WSW 6.9 mph 10.4 mph N/A   Clear
4:55 PM 69.8 °F - 23.0 °F 17% 30.02 in 10.0 mi WSW 8.1 mph - N/A   Clear
5:15 PM 69.8 °F - 23.0 °F 17% 30.02 in 10.0 mi West 9.2 mph - N/A   Clear
5:35 PM 69.8 °F - 24.8 °F 18% 30.02 in 10.0 mi West 9.2 mph - N/A   Clear
5:55 PM 68.0 °F - 24.8 °F 20% 30.01 in 10.0 mi WSW 5.8 mph - N/A   Clear
6:15 PM 68.0 °F - 26.6 °F 21% 30.01 in 10.0 mi WSW 5.8 mph - N/A   Clear
6:35 PM 62.6 °F - 30.2 °F 30% 30.01 in 10.0 mi SW 5.8 mph - N/A   Clear
6:55 PM 59.0 °F - 32.0 °F 36% 30.00 in 10.0 mi SSW 5.8 mph - N/A   Clear
7:15 PM 55.4 °F - 32.0 °F 41% 30.01 in 10.0 mi SSW 6.9 mph - N/A   Clear
7:35 PM 53.6 °F - 32.0 °F 44% 30.01 in 10.0 mi SSW 8.1 mph - N/A   Clear
7:55 PM 53.6 °F - 32.0 °F 44% 30.01 in 10.0 mi South 9.2 mph - N/A   Clear
8:15 PM 53.6 °F - 30.2 °F 41% 30.01 in 10.0 mi South 9.2 mph - N/A   Clear
8:35 PM 53.6 °F - 32.0 °F 44% 30.01 in 10.0 mi South 9.2 mph - N/A   Clear
8:55 PM 51.8 °F - 30.2 °F 44% 30.00 in 10.0 mi South 9.2 mph - N/A   Clear
9:15 PM 51.8 °F - 30.2 °F 44% 30.00 in 10.0 mi South 9.2 mph - N/A   Clear
9:35 PM 53.6 °F - 28.4 °F 38% 30.01 in 10.0 mi South 10.4 mph - N/A   Clear
9:55 PM 53.6 °F - 30.2 °F 41% 30.01 in 10.0 mi South 11.5 mph - N/A   Clear
10:15 PM 53.6 °F - 30.2 °F 41% 30.01 in 10.0 mi SSW 10.4 mph - N/A   Clear
10:35 PM 51.8 °F - 30.2 °F 44% 30.01 in 10.0 mi SSW 9.2 mph - N/A   Clear
10:55 PM 51.8 °F - 30.2 °F 44% 30.02 in 10.0 mi SSW 9.2 mph - N/A   Clear
11:15 PM 50.0 °F - 32.0 °F 50% 30.01 in 10.0 mi SSW 9.2 mph - N/A   Clear
11:35 PM 48.2 °F - 32.0 °F 54% 30.01 in 10.0 mi SSW 10.4 mph - N/A   Clear
11:55 PM 50.0 °F - 32.0 °F 50% 30.01 in 10.0 mi SSW 11.5 mph - N/A   Clear